sensor_id;sensor_type;location;lat;lon;timestamp;temperature;humidity
4677;DHT22;2352;48.180;11.478;2023-07-20T00:00:30;25.00;62.50
4677;DHT22;2352;48.180;11.478;2023-07-20T00:03:33;25.00;62.30
4677;DHT22;2352;48.180;11.478;2023-07-20T00:06:36;25.00;62.30
4677;DHT22;2352;48.180;11.478;2023-07-20T00:09:43;25.00;62.60
4677;DHT22;2352;48.180;11.478;2023-07-20T00:12:46;25.00;62.90
4677;DHT22;2352;48.180;11.478;2023-07-20T00:15:51;24.90;62.80
4677;DHT22;2352;48.180;11.478;2023-07-20T00:18:54;24.90;62.70
4677;DHT22;2352;48.180;11.478;2023-07-20T00:21:57;24.90;62.70
4677;DHT22;2352;48.180;11.478;2023-07-20T00:25:02;24.90;62.80
4677;DHT22;2352;48.180;11.478;2023-07-20T00:28:06;24.80;62.80
4677;DHT22;2352;48.180;11.478;2023-07-20T00:31:09;24.90;62.80
4677;DHT22;2352;48.180;11.478;2023-07-20T00:34:12;24.90;62.70
4677;DHT22;2352;48.180;11.478;2023-07-20T00:37:14;24.80;62.20
4677;DHT22;2352;48.180;11.478;2023-07-20T00:40:19;24.80;62.60
4677;DHT22;2352;48.180;11.478;2023-07-20T00:43:22;24.80;63.00
4677;DHT22;2352;48.180;11.478;2023-07-20T00:46:25;24.90;64.00
4677;DHT22;2352;48.180;11.478;2023-07-20T00:49:29;24.80;64.40
4677;DHT22;2352;48.180;11.478;2023-07-20T00:52:33;24.80;64.80
4677;DHT22;2352;48.180;11.478;2023-07-20T00:55:37;24.80;65.40
4677;DHT22;2352;48.180;11.478;2023-07-20T00:58:40;24.80;65.40
4677;DHT22;2352;48.180;11.478;2023-07-20T01:01:43;24.80;65.50
4677;DHT22;2352;48.180;11.478;2023-07-20T01:04:47;24.70;66.50
4677;DHT22;2352;48.180;11.478;2023-07-20T01:07:59;24.70;67.00
4677;DHT22;2352;48.180;11.478;2023-07-20T01:11:15;24.70;66.90
4677;DHT22;2352;48.180;11.478;2023-07-20T01:14:20;24.70;65.80
4677;DHT22;2352;48.180;11.478;2023-07-20T01:17:23;24.70;66.70
4677;DHT22;2352;48.180;11.478;2023-07-20T01:20:28;24.70;66.90
4677;DHT22;2352;48.180;11.478;2023-07-20T01:23:52;24.70;67.70
4677;DHT22;2352;48.180;11.478;2023-07-20T01:27:32;24.70;67.50
4677;DHT22;2352;48.180;11.478;2023-07-20T01:30:47;24.60;68.50
4677;DHT22;2352;48.180;11.478;2023-07-20T01:33:57;24.60;68.00
4677;DHT22;2352;48.180;11.478;2023-07-20T01:37:01;24.50;67.80
4677;DHT22;2352;48.180;11.478;2023-07-20T01:40:07;24.50;68.50
4677;DHT22;2352;48.180;11.478;2023-07-20T01:43:11;24.50;68.40
4677;DHT22;2352;48.180;11.478;2023-07-20T01:46:15;24.50;67.00
4677;DHT22;2352;48.180;11.478;2023-07-20T01:49:19;24.50;68.20
4677;DHT22;2352;48.180;11.478;2023-07-20T01:52:23;24.50;66.70
4677;DHT22;2352;48.180;11.478;2023-07-20T01:55:26;24.50;66.50
4677;DHT22;2352;48.180;11.478;2023-07-20T01:58:29;24.40;68.50
4677;DHT22;2352;48.180;11.478;2023-07-20T02:01:32;24.40;67.10
4677;DHT22;2352;48.180;11.478;2023-07-20T02:04:37;24.40;67.60
4677;DHT22;2352;48.180;11.478;2023-07-20T02:07:40;24.30;66.60
4677;DHT22;2352;48.180;11.478;2023-07-20T02:10:45;24.30;67.70
4677;DHT22;2352;48.180;11.478;2023-07-20T02:13:48;24.20;67.30
4677;DHT22;2352;48.180;11.478;2023-07-20T02:16:51;24.20;67.10
4677;DHT22;2352;48.180;11.478;2023-07-20T02:19:57;24.10;67.50
4677;DHT22;2352;48.180;11.478;2023-07-20T02:23:00;24.10;66.90
4677;DHT22;2352;48.180;11.478;2023-07-20T02:26:03;24.10;67.90
4677;DHT22;2352;48.180;11.478;2023-07-20T02:29:06;24.10;67.80
4677;DHT22;2352;48.180;11.478;2023-07-20T02:32:09;24.10;68.50
4677;DHT22;2352;48.180;11.478;2023-07-20T02:35:16;24.10;69.50
4677;DHT22;2352;48.180;11.478;2023-07-20T02:38:19;24.00;70.40
4677;DHT22;2352;48.180;11.478;2023-07-20T02:41:22;23.90;69.20
4677;DHT22;2352;48.180;11.478;2023-07-20T02:44:25;23.90;70.10
4677;DHT22;2352;48.180;11.478;2023-07-20T02:47:29;23.90;70.30
4677;DHT22;2352;48.180;11.478;2023-07-20T02:50:33;23.90;70.60
4677;DHT22;2352;48.180;11.478;2023-07-20T02:53:36;23.90;70.10
4677;DHT22;2352;48.180;11.478;2023-07-20T02:56:40;23.90;69.20
4677;DHT22;2352;48.180;11.478;2023-07-20T02:59:43;23.90;69.70
4677;DHT22;2352;48.180;11.478;2023-07-20T03:02:46;23.80;70.00
4677;DHT22;2352;48.180;11.478;2023-07-20T03:05:52;23.80;68.30
4677;DHT22;2352;48.180;11.478;2023-07-20T03:08:56;23.70;67.00
4677;DHT22;2352;48.180;11.478;2023-07-20T03:11:59;23.70;68.00
4677;DHT22;2352;48.180;11.478;2023-07-20T03:15:03;23.70;69.00
4677;DHT22;2352;48.180;11.478;2023-07-20T03:18:06;23.70;67.90
4677;DHT22;2352;48.180;11.478;2023-07-20T03:21:11;23.60;67.90
4677;DHT22;2352;48.180;11.478;2023-07-20T03:24:14;23.60;68.00
4677;DHT22;2352;48.180;11.478;2023-07-20T03:27:17;23.60;66.60
4677;DHT22;2352;48.180;11.478;2023-07-20T03:30:20;23.50;67.00
4677;DHT22;2352;48.180;11.478;2023-07-20T03:33:26;23.50;70.00
4677;DHT22;2352;48.180;11.478;2023-07-20T03:36:31;23.50;70.00
4677;DHT22;2352;48.180;11.478;2023-07-20T03:39:34;23.40;67.50
4677;DHT22;2352;48.180;11.478;2023-07-20T03:42:37;23.40;68.30
4677;DHT22;2352;48.180;11.478;2023-07-20T03:45:40;23.40;67.00
4677;DHT22;2352;48.180;11.478;2023-07-20T03:48:43;23.30;67.60
4677;DHT22;2352;48.180;11.478;2023-07-20T03:51:47;23.30;68.90
4677;DHT22;2352;48.180;11.478;2023-07-20T03:54:50;23.30;69.70
4677;DHT22;2352;48.180;11.478;2023-07-20T03:57:54;23.30;69.40
4677;DHT22;2352;48.180;11.478;2023-07-20T04:00:57;23.30;67.30
4677;DHT22;2352;48.180;11.478;2023-07-20T04:04:01;23.20;69.40
4677;DHT22;2352;48.180;11.478;2023-07-20T04:07:06;23.20;70.90
4677;DHT22;2352;48.180;11.478;2023-07-20T04:10:09;23.10;70.70
4677;DHT22;2352;48.180;11.478;2023-07-20T04:13:12;23.00;71.90
4677;DHT22;2352;48.180;11.478;2023-07-20T04:16:15;23.00;72.00
4677;DHT22;2352;48.180;11.478;2023-07-20T04:19:18;23.00;73.50
4677;DHT22;2352;48.180;11.478;2023-07-20T04:22:23;22.90;72.10
4677;DHT22;2352;48.180;11.478;2023-07-20T04:25:26;22.90;72.10
4677;DHT22;2352;48.180;11.478;2023-07-20T04:28:29;22.90;73.10
4677;DHT22;2352;48.180;11.478;2023-07-20T04:31:32;22.90;72.40
4677;DHT22;2352;48.180;11.478;2023-07-20T04:34:35;22.80;72.80
4677;DHT22;2352;48.180;11.478;2023-07-20T04:37:40;22.70;73.30
4677;DHT22;2352;48.180;11.478;2023-07-20T04:40:48;22.70;73.70
4677;DHT22;2352;48.180;11.478;2023-07-20T04:43:51;22.70;74.60
4677;DHT22;2352;48.180;11.478;2023-07-20T04:46:54;22.70;75.80
4677;DHT22;2352;48.180;11.478;2023-07-20T04:49:57;22.70;74.60
4677;DHT22;2352;48.180;11.478;2023-07-20T04:53:02;22.70;75.20
4677;DHT22;2352;48.180;11.478;2023-07-20T04:56:05;22.80;75.70
4677;DHT22;2352;48.180;11.478;2023-07-20T04:59:08;22.70;75.80
4677;DHT22;2352;48.180;11.478;2023-07-20T05:02:10;22.70;75.10
4677;DHT22;2352;48.180;11.478;2023-07-20T05:05:14;22.70;73.50
4677;DHT22;2352;48.180;11.478;2023-07-20T05:08:18;22.70;73.90
4677;DHT22;2352;48.180;11.478;2023-07-20T05:11:23;22.70;74.70
4677;DHT22;2352;48.180;11.478;2023-07-20T05:14:26;22.60;73.80
4677;DHT22;2352;48.180;11.478;2023-07-20T05:17:29;22.60;72.30
4677;DHT22;2352;48.180;11.478;2023-07-20T05:20:32;22.50;72.00
4677;DHT22;2352;48.180;11.478;2023-07-20T05:23:38;22.50;75.00
4677;DHT22;2352;48.180;11.478;2023-07-20T05:26:41;22.50;72.80
4677;DHT22;2352;48.180;11.478;2023-07-20T05:29:44;22.60;74.50
4677;DHT22;2352;48.180;11.478;2023-07-20T05:32:47;22.50;70.10
4677;DHT22;2352;48.180;11.478;2023-07-20T05:35:52;22.60;71.30
4677;DHT22;2352;48.180;11.478;2023-07-20T05:38:57;22.50;69.70
4677;DHT22;2352;48.180;11.478;2023-07-20T05:42:00;22.70;68.70
4677;DHT22;2352;48.180;11.478;2023-07-20T05:45:03;22.70;67.80
4677;DHT22;2352;48.180;11.478;2023-07-20T05:48:07;22.60;70.20
4677;DHT22;2352;48.180;11.478;2023-07-20T05:51:11;22.60;69.20
4677;DHT22;2352;48.180;11.478;2023-07-20T05:54:16;22.60;68.70
4677;DHT22;2352;48.180;11.478;2023-07-20T05:57:19;22.60;68.70
4677;DHT22;2352;48.180;11.478;2023-07-20T06:00:22;22.60;70.10
4677;DHT22;2352;48.180;11.478;2023-07-20T06:03:28;22.70;69.10
4677;DHT22;2352;48.180;11.478;2023-07-20T06:06:31;22.70;68.80
4677;DHT22;2352;48.180;11.478;2023-07-20T06:09:35;22.70;69.80
4677;DHT22;2352;48.180;11.478;2023-07-20T06:12:39;22.70;68.60
4677;DHT22;2352;48.180;11.478;2023-07-20T06:15:42;22.70;68.20
4677;DHT22;2352;48.180;11.478;2023-07-20T06:18:45;22.70;68.90
4677;DHT22;2352;48.180;11.478;2023-07-20T06:21:48;22.80;69.50
4677;DHT22;2352;48.180;11.478;2023-07-20T06:24:53;22.80;67.80
4677;DHT22;2352;48.180;11.478;2023-07-20T06:27:57;22.80;68.10
4677;DHT22;2352;48.180;11.478;2023-07-20T06:31:00;22.80;66.80
4677;DHT22;2352;48.180;11.478;2023-07-20T06:34:03;22.70;67.30
4677;DHT22;2352;48.180;11.478;2023-07-20T06:37:07;22.80;67.00
4677;DHT22;2352;48.180;11.478;2023-07-20T06:40:12;22.80;68.10
4677;DHT22;2352;48.180;11.478;2023-07-20T06:43:18;22.70;67.00
4677;DHT22;2352;48.180;11.478;2023-07-20T06:46:24;22.70;67.20
4677;DHT22;2352;48.180;11.478;2023-07-20T06:49:29;22.70;65.50
4677;DHT22;2352;48.180;11.478;2023-07-20T06:52:32;22.60;66.80
4677;DHT22;2352;48.180;11.478;2023-07-20T06:55:36;22.60;66.70
4677;DHT22;2352;48.180;11.478;2023-07-20T06:58:43;22.60;67.30
4677;DHT22;2352;48.180;11.478;2023-07-20T07:01:47;22.60;67.40
4677;DHT22;2352;48.180;11.478;2023-07-20T07:04:50;22.60;66.10
4677;DHT22;2352;48.180;11.478;2023-07-20T07:08:01;22.60;65.90
4677;DHT22;2352;48.180;11.478;2023-07-20T07:11:05;22.50;65.30
4677;DHT22;2352;48.180;11.478;2023-07-20T07:14:08;22.50;66.20
4677;DHT22;2352;48.180;11.478;2023-07-20T07:17:11;22.60;66.70
4677;DHT22;2352;48.180;11.478;2023-07-20T07:20:20;22.70;66.10
4677;DHT22;2352;48.180;11.478;2023-07-20T07:23:23;22.80;65.30
4677;DHT22;2352;48.180;11.478;2023-07-20T07:26:27;22.80;64.00
4677;DHT22;2352;48.180;11.478;2023-07-20T07:29:30;22.90;65.30
4677;DHT22;2352;48.180;11.478;2023-07-20T07:32:34;22.90;65.30
4677;DHT22;2352;48.180;11.478;2023-07-20T07:35:37;22.90;64.80
4677;DHT22;2352;48.180;11.478;2023-07-20T07:38:40;23.00;64.60
4677;DHT22;2352;48.180;11.478;2023-07-20T07:41:47;23.00;61.50
4677;DHT22;2352;48.180;11.478;2023-07-20T07:44:50;23.00;63.00
4677;DHT22;2352;48.180;11.478;2023-07-20T07:47:53;23.00;62.90
4677;DHT22;2352;48.180;11.478;2023-07-20T07:50:56;23.00;61.90
4677;DHT22;2352;48.180;11.478;2023-07-20T07:54:00;23.00;63.50
4677;DHT22;2352;48.180;11.478;2023-07-20T07:57:07;23.10;63.00
4677;DHT22;2352;48.180;11.478;2023-07-20T08:00:11;23.20;63.00
4677;DHT22;2352;48.180;11.478;2023-07-20T08:03:16;23.30;62.90
4677;DHT22;2352;48.180;11.478;2023-07-20T08:06:20;23.30;61.40
4677;DHT22;2352;48.180;11.478;2023-07-20T08:09:26;23.40;62.10
4677;DHT22;2352;48.180;11.478;2023-07-20T08:12:30;23.40;61.30
4677;DHT22;2352;48.180;11.478;2023-07-20T08:15:33;23.30;61.80
4677;DHT22;2352;48.180;11.478;2023-07-20T08:18:36;23.40;61.80
4677;DHT22;2352;48.180;11.478;2023-07-20T08:21:40;23.40;60.60
4677;DHT22;2352;48.180;11.478;2023-07-20T08:24:43;23.30;60.30
4677;DHT22;2352;48.180;11.478;2023-07-20T08:27:48;23.40;60.90
4677;DHT22;2352;48.180;11.478;2023-07-20T08:30:51;23.50;61.40
4677;DHT22;2352;48.180;11.478;2023-07-20T08:33:54;23.70;60.00
4677;DHT22;2352;48.180;11.478;2023-07-20T08:36:58;23.70;58.60
4677;DHT22;2352;48.180;11.478;2023-07-20T08:40:02;23.70;59.90
4677;DHT22;2352;48.180;11.478;2023-07-20T08:43:12;23.80;59.80
4677;DHT22;2352;48.180;11.478;2023-07-20T08:46:16;23.80;58.80
4677;DHT22;2352;48.180;11.478;2023-07-20T08:49:19;23.80;60.00
4677;DHT22;2352;48.180;11.478;2023-07-20T08:52:22;23.90;59.60
4677;DHT22;2352;48.180;11.478;2023-07-20T08:55:26;24.00;59.00
4677;DHT22;2352;48.180;11.478;2023-07-20T08:58:31;24.00;58.70
4677;DHT22;2352;48.180;11.478;2023-07-20T09:01:36;24.00;57.50
4677;DHT22;2352;48.180;11.478;2023-07-20T09:04:40;24.00;57.80
4677;DHT22;2352;48.180;11.478;2023-07-20T09:07:44;23.90;57.10
4677;DHT22;2352;48.180;11.478;2023-07-20T09:10:48;24.00;58.00
4677;DHT22;2352;48.180;11.478;2023-07-20T09:14:03;24.00;58.30
4677;DHT22;2352;48.180;11.478;2023-07-20T09:17:12;24.10;58.20
4677;DHT22;2352;48.180;11.478;2023-07-20T09:20:17;24.20;57.80
4677;DHT22;2352;48.180;11.478;2023-07-20T09:23:30;24.40;56.40
4677;DHT22;2352;48.180;11.478;2023-07-20T09:26:40;24.40;56.70
4677;DHT22;2352;48.180;11.478;2023-07-20T09:29:51;24.40;57.40
4677;DHT22;2352;48.180;11.478;2023-07-20T09:32:54;24.40;55.50
4677;DHT22;2352;48.180;11.478;2023-07-20T09:36:02;24.40;56.60
4677;DHT22;2352;48.180;11.478;2023-07-20T09:39:25;24.50;57.80
4677;DHT22;2352;48.180;11.478;2023-07-20T09:42:31;24.50;57.40
4677;DHT22;2352;48.180;11.478;2023-07-20T09:45:39;24.50;56.70
4677;DHT22;2352;48.180;11.478;2023-07-20T09:48:51;24.60;54.90
4677;DHT22;2352;48.180;11.478;2023-07-20T09:51:58;24.60;55.30
4677;DHT22;2352;48.180;11.478;2023-07-20T09:55:06;24.60;57.20
4677;DHT22;2352;48.180;11.478;2023-07-20T09:58:09;24.70;56.10
4677;DHT22;2352;48.180;11.478;2023-07-20T10:01:19;24.80;56.80
4677;DHT22;2352;48.180;11.478;2023-07-20T10:04:27;24.90;56.60
4677;DHT22;2352;48.180;11.478;2023-07-20T10:07:31;24.90;56.50
4677;DHT22;2352;48.180;11.478;2023-07-20T10:10:36;25.00;55.80
4677;DHT22;2352;48.180;11.478;2023-07-20T10:13:44;25.10;56.10
4677;DHT22;2352;48.180;11.478;2023-07-20T10:16:51;25.10;55.50
4677;DHT22;2352;48.180;11.478;2023-07-20T10:19:57;25.10;55.90
4677;DHT22;2352;48.180;11.478;2023-07-20T10:23:04;25.20;56.00
4677;DHT22;2352;48.180;11.478;2023-07-20T10:26:07;25.20;57.00
4677;DHT22;2352;48.180;11.478;2023-07-20T10:29:12;25.10;56.30
4677;DHT22;2352;48.180;11.478;2023-07-20T10:32:17;25.10;56.30
4677;DHT22;2352;48.180;11.478;2023-07-20T10:35:21;25.20;57.30
4677;DHT22;2352;48.180;11.478;2023-07-20T10:38:44;25.20;57.20
4677;DHT22;2352;48.180;11.478;2023-07-20T10:42:01;25.20;56.60
4677;DHT22;2352;48.180;11.478;2023-07-20T10:45:06;25.40;58.30
4677;DHT22;2352;48.180;11.478;2023-07-20T10:48:19;25.60;56.50
4677;DHT22;2352;48.180;11.478;2023-07-20T10:51:22;25.60;56.00
4677;DHT22;2352;48.180;11.478;2023-07-20T10:54:47;25.70;55.50
4677;DHT22;2352;48.180;11.478;2023-07-20T10:58:07;25.80;55.00
4677;DHT22;2352;48.180;11.478;2023-07-20T11:01:14;25.90;56.00
4677;DHT22;2352;48.180;11.478;2023-07-20T11:04:19;25.90;55.20
4677;DHT22;2352;48.180;11.478;2023-07-20T11:07:36;25.90;55.30
4677;DHT22;2352;48.180;11.478;2023-07-20T11:10:40;25.90;54.30
4677;DHT22;2352;48.180;11.478;2023-07-20T11:13:54;25.90;55.00
4677;DHT22;2352;48.180;11.478;2023-07-20T11:17:11;26.00;54.80
4677;DHT22;2352;48.180;11.478;2023-07-20T11:20:16;26.00;54.20
4677;DHT22;2352;48.180;11.478;2023-07-20T11:23:22;26.10;54.40
4677;DHT22;2352;48.180;11.478;2023-07-20T11:26:24;26.10;54.10
4677;DHT22;2352;48.180;11.478;2023-07-20T11:29:27;26.20;54.30
4677;DHT22;2352;48.180;11.478;2023-07-20T11:32:35;26.30;54.90
4677;DHT22;2352;48.180;11.478;2023-07-20T11:35:44;26.60;54.30
4677;DHT22;2352;48.180;11.478;2023-07-20T11:38:48;26.60;53.60
4677;DHT22;2352;48.180;11.478;2023-07-20T11:41:52;26.50;53.20
4677;DHT22;2352;48.180;11.478;2023-07-20T11:44:55;26.40;53.60
4677;DHT22;2352;48.180;11.478;2023-07-20T11:48:02;26.30;54.60
4677;DHT22;2352;48.180;11.478;2023-07-20T11:51:13;26.30;54.00
4677;DHT22;2352;48.180;11.478;2023-07-20T11:54:16;26.50;55.00
4677;DHT22;2352;48.180;11.478;2023-07-20T11:57:20;26.50;53.60
4677;DHT22;2352;48.180;11.478;2023-07-20T12:00:25;26.40;53.80
4677;DHT22;2352;48.180;11.478;2023-07-20T12:03:29;26.50;55.70
4677;DHT22;2352;48.180;11.478;2023-07-20T12:06:34;26.80;54.20
4677;DHT22;2352;48.180;11.478;2023-07-20T12:09:37;27.10;54.00
4677;DHT22;2352;48.180;11.478;2023-07-20T12:12:52;27.30;53.00
4677;DHT22;2352;48.180;11.478;2023-07-20T12:15:55;27.30;52.90
4677;DHT22;2352;48.180;11.478;2023-07-20T12:19:02;27.20;52.20
4677;DHT22;2352;48.180;11.478;2023-07-20T12:22:07;27.10;51.70
4677;DHT22;2352;48.180;11.478;2023-07-20T12:25:11;27.30;53.20
4677;DHT22;2352;48.180;11.478;2023-07-20T12:28:15;27.40;52.50
4677;DHT22;2352;48.180;11.478;2023-07-20T12:31:18;27.50;51.60
4677;DHT22;2352;48.180;11.478;2023-07-20T12:34:23;27.60;52.10
4677;DHT22;2352;48.180;11.478;2023-07-20T12:37:27;27.70;51.80
4677;DHT22;2352;48.180;11.478;2023-07-20T12:40:30;27.90;51.30
4677;DHT22;2352;48.180;11.478;2023-07-20T12:43:33;28.00;51.50
4677;DHT22;2352;48.180;11.478;2023-07-20T12:46:36;28.20;51.20
4677;DHT22;2352;48.180;11.478;2023-07-20T12:49:41;28.10;51.10
4677;DHT22;2352;48.180;11.478;2023-07-20T12:52:48;28.00;51.10
4677;DHT22;2352;48.180;11.478;2023-07-20T12:55:51;28.00;51.90
4677;DHT22;2352;48.180;11.478;2023-07-20T12:58:54;28.00;51.80
4677;DHT22;2352;48.180;11.478;2023-07-20T13:01:57;28.00;50.20
4677;DHT22;2352;48.180;11.478;2023-07-20T13:05:00;28.00;50.20
4677;DHT22;2352;48.180;11.478;2023-07-20T13:08:05;28.00;50.20
4677;DHT22;2352;48.180;11.478;2023-07-20T13:11:11;28.00;51.10
4677;DHT22;2352;48.180;11.478;2023-07-20T13:14:14;28.00;51.20
4677;DHT22;2352;48.180;11.478;2023-07-20T13:17:17;27.90;51.40
4677;DHT22;2352;48.180;11.478;2023-07-20T13:20:20;27.90;50.60
4677;DHT22;2352;48.180;11.478;2023-07-20T13:23:25;28.00;51.30
4677;DHT22;2352;48.180;11.478;2023-07-20T13:26:28;28.30;51.20
4677;DHT22;2352;48.180;11.478;2023-07-20T13:29:31;28.50;51.70
4677;DHT22;2352;48.180;11.478;2023-07-20T13:32:35;28.50;49.50
4677;DHT22;2352;48.180;11.478;2023-07-20T13:35:38;28.40;50.00
4677;DHT22;2352;48.180;11.478;2023-07-20T13:38:45;28.30;50.40
4677;DHT22;2352;48.180;11.478;2023-07-20T13:41:48;28.40;50.90
4677;DHT22;2352;48.180;11.478;2023-07-20T13:44:51;28.60;51.50
4677;DHT22;2352;48.180;11.478;2023-07-20T13:47:55;28.80;49.40
4677;DHT22;2352;48.180;11.478;2023-07-20T13:50:58;28.80;48.50
4677;DHT22;2352;48.180;11.478;2023-07-20T13:54:03;28.70;48.70
4677;DHT22;2352;48.180;11.478;2023-07-20T13:57:09;28.70;48.80
4677;DHT22;2352;48.180;11.478;2023-07-20T14:00:13;28.70;49.70
4677;DHT22;2352;48.180;11.478;2023-07-20T14:03:19;28.80;49.60
4677;DHT22;2352;48.180;11.478;2023-07-20T14:06:22;28.90;50.30
4677;DHT22;2352;48.180;11.478;2023-07-20T14:09:28;28.90;48.90
4677;DHT22;2352;48.180;11.478;2023-07-20T14:12:33;28.80;48.10
4677;DHT22;2352;48.180;11.478;2023-07-20T14:15:36;28.80;49.70
4677;DHT22;2352;48.180;11.478;2023-07-20T14:18:39;28.80;49.60
4677;DHT22;2352;48.180;11.478;2023-07-20T14:21:42;28.80;49.20
4677;DHT22;2352;48.180;11.478;2023-07-20T14:24:47;28.90;49.70
4677;DHT22;2352;48.180;11.478;2023-07-20T14:27:50;28.90;49.30
4677;DHT22;2352;48.180;11.478;2023-07-20T14:30:53;29.00;48.90
4677;DHT22;2352;48.180;11.478;2023-07-20T14:33:56;29.00;48.90
4677;DHT22;2352;48.180;11.478;2023-07-20T14:37:01;29.10;48.60
4677;DHT22;2352;48.180;11.478;2023-07-20T14:40:08;29.10;48.10
4677;DHT22;2352;48.180;11.478;2023-07-20T14:43:11;29.10;48.70
4677;DHT22;2352;48.180;11.478;2023-07-20T14:46:15;29.10;47.70
4677;DHT22;2352;48.180;11.478;2023-07-20T14:49:22;29.10;48.00
4677;DHT22;2352;48.180;11.478;2023-07-20T14:52:24;29.00;47.90
4677;DHT22;2352;48.180;11.478;2023-07-20T14:55:31;29.00;48.20
4677;DHT22;2352;48.180;11.478;2023-07-20T14:58:34;29.00;48.70
4677;DHT22;2352;48.180;11.478;2023-07-20T15:01:37;29.00;48.20
4677;DHT22;2352;48.180;11.478;2023-07-20T15:04:45;29.00;49.10
4677;DHT22;2352;48.180;11.478;2023-07-20T15:07:49;29.00;47.60
4677;DHT22;2352;48.180;11.478;2023-07-20T15:10:53;28.90;48.20
4677;DHT22;2352;48.180;11.478;2023-07-20T15:13:56;28.80;48.50
4677;DHT22;2352;48.180;11.478;2023-07-20T15:16:59;28.80;49.10
4677;DHT22;2352;48.180;11.478;2023-07-20T15:20:04;28.80;48.80
4677;DHT22;2352;48.180;11.478;2023-07-20T15:23:07;28.70;48.90
4677;DHT22;2352;48.180;11.478;2023-07-20T15:26:12;28.60;48.50
4677;DHT22;2352;48.180;11.478;2023-07-20T15:29:15;28.60;49.10
4677;DHT22;2352;48.180;11.478;2023-07-20T15:32:21;28.60;48.90
4677;DHT22;2352;48.180;11.478;2023-07-20T15:35:24;28.60;49.90
4677;DHT22;2352;48.180;11.478;2023-07-20T15:38:27;28.60;48.30
4677;DHT22;2352;48.180;11.478;2023-07-20T15:41:32;28.50;48.90
4677;DHT22;2352;48.180;11.478;2023-07-20T15:44:35;28.40;49.30
4677;DHT22;2352;48.180;11.478;2023-07-20T15:47:38;28.50;49.00
4677;DHT22;2352;48.180;11.478;2023-07-20T15:50:41;28.40;48.10
4677;DHT22;2352;48.180;11.478;2023-07-20T15:53:44;28.40;48.80
4677;DHT22;2352;48.180;11.478;2023-07-20T15:56:50;28.40;47.80
4677;DHT22;2352;48.180;11.478;2023-07-20T15:59:54;28.40;47.60
4677;DHT22;2352;48.180;11.478;2023-07-20T16:02:58;28.30;48.10
4677;DHT22;2352;48.180;11.478;2023-07-20T16:06:01;28.20;47.80
4677;DHT22;2352;48.180;11.478;2023-07-20T16:09:06;28.20;48.90
4677;DHT22;2352;48.180;11.478;2023-07-20T16:12:11;28.20;48.70
4677;DHT22;2352;48.180;11.478;2023-07-20T16:15:14;28.10;48.70
4677;DHT22;2352;48.180;11.478;2023-07-20T16:18:37;28.10;48.90
4677;DHT22;2352;48.180;11.478;2023-07-20T16:21:40;28.10;49.40
4677;DHT22;2352;48.180;11.478;2023-07-20T16:24:43;28.00;48.80
4677;DHT22;2352;48.180;11.478;2023-07-20T16:27:49;28.00;48.60
4677;DHT22;2352;48.180;11.478;2023-07-20T16:30:52;28.00;48.50
4677;DHT22;2352;48.180;11.478;2023-07-20T16:33:56;27.90;47.70
4677;DHT22;2352;48.180;11.478;2023-07-20T16:37:02;27.90;48.40
4677;DHT22;2352;48.180;11.478;2023-07-20T16:40:08;27.90;48.40
4677;DHT22;2352;48.180;11.478;2023-07-20T16:43:17;27.80;48.50
4677;DHT22;2352;48.180;11.478;2023-07-20T16:46:40;27.80;49.10
4677;DHT22;2352;48.180;11.478;2023-07-20T16:49:46;27.80;49.50
4677;DHT22;2352;48.180;11.478;2023-07-20T16:52:49;27.90;50.80
4677;DHT22;2352;48.180;11.478;2023-07-20T16:55:53;27.80;49.50
4677;DHT22;2352;48.180;11.478;2023-07-20T16:58:58;27.80;49.20
4677;DHT22;2352;48.180;11.478;2023-07-20T17:02:01;27.80;50.00
4677;DHT22;2352;48.180;11.478;2023-07-20T17:05:05;27.80;49.20
4677;DHT22;2352;48.180;11.478;2023-07-20T17:08:11;27.70;50.30
4677;DHT22;2352;48.180;11.478;2023-07-20T17:11:14;27.70;49.50
4677;DHT22;2352;48.180;11.478;2023-07-20T17:14:19;27.70;49.70
4677;DHT22;2352;48.180;11.478;2023-07-20T17:17:22;27.80;48.90
4677;DHT22;2352;48.180;11.478;2023-07-20T17:20:25;27.70;48.80
4677;DHT22;2352;48.180;11.478;2023-07-20T17:23:31;27.60;48.30
4677;DHT22;2352;48.180;11.478;2023-07-20T17:26:38;27.60;48.10
4677;DHT22;2352;48.180;11.478;2023-07-20T17:29:45;27.50;47.90
4677;DHT22;2352;48.180;11.478;2023-07-20T17:32:49;27.50;48.30
4677;DHT22;2352;48.180;11.478;2023-07-20T17:35:53;27.50;48.80
4677;DHT22;2352;48.180;11.478;2023-07-20T17:39:16;27.40;48.70
4677;DHT22;2352;48.180;11.478;2023-07-20T17:42:19;27.50;47.90
4677;DHT22;2352;48.180;11.478;2023-07-20T17:45:26;27.40;47.70
4677;DHT22;2352;48.180;11.478;2023-07-20T17:48:29;27.30;47.40
4677;DHT22;2352;48.180;11.478;2023-07-20T17:51:33;27.30;47.70
4677;DHT22;2352;48.180;11.478;2023-07-20T17:54:36;27.30;48.30
4677;DHT22;2352;48.180;11.478;2023-07-20T17:57:39;27.20;49.30
4677;DHT22;2352;48.180;11.478;2023-07-20T18:00:43;27.20;48.30
4677;DHT22;2352;48.180;11.478;2023-07-20T18:03:46;27.20;49.40
4677;DHT22;2352;48.180;11.478;2023-07-20T18:06:49;27.20;49.60
4677;DHT22;2352;48.180;11.478;2023-07-20T18:09:52;27.10;49.50
4677;DHT22;2352;48.180;11.478;2023-07-20T18:12:55;27.10;49.30
4677;DHT22;2352;48.180;11.478;2023-07-20T18:16:00;27.00;49.20
4677;DHT22;2352;48.180;11.478;2023-07-20T18:19:03;27.00;49.60
4677;DHT22;2352;48.180;11.478;2023-07-20T18:22:07;26.90;50.00
4677;DHT22;2352;48.180;11.478;2023-07-20T18:25:10;26.90;49.80
4677;DHT22;2352;48.180;11.478;2023-07-20T18:28:14;26.80;49.10
4677;DHT22;2352;48.180;11.478;2023-07-20T18:31:18;26.80;49.60
4677;DHT22;2352;48.180;11.478;2023-07-20T18:34:21;26.70;49.30
4677;DHT22;2352;48.180;11.478;2023-07-20T18:37:24;26.70;50.10
4677;DHT22;2352;48.180;11.478;2023-07-20T18:40:27;26.70;50.60
4677;DHT22;2352;48.180;11.478;2023-07-20T18:43:30;26.60;50.30
4677;DHT22;2352;48.180;11.478;2023-07-20T18:46:35;26.60;50.60
4677;DHT22;2352;48.180;11.478;2023-07-20T18:49:38;26.50;50.80
4677;DHT22;2352;48.180;11.478;2023-07-20T18:52:41;26.50;51.00
4677;DHT22;2352;48.180;11.478;2023-07-20T18:55:44;26.50;51.40
4677;DHT22;2352;48.180;11.478;2023-07-20T18:58:48;26.40;51.50
4677;DHT22;2352;48.180;11.478;2023-07-20T19:01:53;26.30;51.70
4677;DHT22;2352;48.180;11.478;2023-07-20T19:04:56;26.30;52.30
4677;DHT22;2352;48.180;11.478;2023-07-20T19:07:59;26.20;54.40
4677;DHT22;2352;48.180;11.478;2023-07-20T19:11:04;26.20;54.80
4677;DHT22;2352;48.180;11.478;2023-07-20T19:14:10;26.10;54.90
4677;DHT22;2352;48.180;11.478;2023-07-20T19:17:15;26.00;55.70
4677;DHT22;2352;48.180;11.478;2023-07-20T19:20:18;26.00;55.60
4677;DHT22;2352;48.180;11.478;2023-07-20T19:23:21;26.00;55.40
4677;DHT22;2352;48.180;11.478;2023-07-20T19:26:24;25.90;55.40
4677;DHT22;2352;48.180;11.478;2023-07-20T19:29:27;25.90;55.80
4677;DHT22;2352;48.180;11.478;2023-07-20T19:32:33;25.90;54.40
4677;DHT22;2352;48.180;11.478;2023-07-20T19:35:36;25.90;54.60
4677;DHT22;2352;48.180;11.478;2023-07-20T19:38:40;25.80;54.20
4677;DHT22;2352;48.180;11.478;2023-07-20T19:41:43;25.80;54.40
4677;DHT22;2352;48.180;11.478;2023-07-20T19:44:46;25.80;54.20